createdAt,value
2019-05-18T00:00:00.934Z,77.60
2019-05-18T00:02:32.977Z,77.50
2019-05-18T00:05:02.308Z,77.50
2019-05-18T00:07:31.770Z,77.40
2019-05-18T00:10:01.057Z,77.50
2019-05-18T00:12:30.356Z,77.60
2019-05-18T00:14:59.653Z,77.80
2019-05-18T00:17:28.896Z,77.80
2019-05-18T00:19:58.122Z,78.00
2019-05-18T00:22:27.482Z,78.20
2019-05-18T00:25:08.890Z,78.10
2019-05-18T00:27:38.142Z,78.10
2019-05-18T00:30:07.646Z,78.10
2019-05-18T00:32:51.746Z,78.20
2019-05-18T00:35:21.110Z,78.40
2019-05-18T00:37:50.421Z,78.40
2019-05-18T00:40:19.835Z,78.40
2019-05-18T00:42:49.158Z,78.30
2019-05-18T00:45:18.522Z,78.40
2019-05-18T00:47:47.830Z,78.40
2019-05-18T00:50:17.226Z,78.30
2019-05-18T00:52:46.604Z,78.30
2019-05-18T00:55:15.854Z,78.30
2019-05-18T00:57:45.161Z,79.10
2019-05-18T01:00:15.556Z,78.40
2019-05-18T01:02:44.832Z,78.40
2019-05-18T01:05:14.455Z,78.40
2019-05-18T01:07:43.688Z,78.30
2019-05-18T01:10:13.914Z,78.10
2019-05-18T01:12:46.319Z,77.90
2019-05-18T01:15:15.881Z,77.80
2019-05-18T01:17:57.005Z,77.70
2019-05-18T01:20:16.739Z,77.60
2019-05-18T01:22:46.248Z,78.30
2019-05-18T01:25:16.100Z,77.50
2019-05-18T01:27:45.446Z,78.40
2019-05-18T01:30:15.118Z,77.50
2019-05-18T01:32:44.417Z,77.50
2019-05-18T01:35:14.319Z,77.50
2019-05-18T01:37:43.598Z,77.60
2019-05-18T01:40:13.889Z,77.60
2019-05-18T01:42:43.154Z,78.40
2019-05-18T01:45:16.844Z,77.50
2019-05-18T01:47:43.720Z,77.50
2019-05-18T01:50:13.502Z,77.60
2019-05-18T01:52:42.751Z,77.70
2019-05-18T01:55:12.031Z,77.70
2019-05-18T01:57:41.305Z,77.70
2019-05-18T02:00:11.424Z,77.80
2019-05-18T02:02:40.910Z,77.90
2019-05-18T02:05:10.585Z,77.80
2019-05-18T02:07:39.799Z,77.90
2019-05-18T02:10:09.535Z,78.00
2019-05-18T02:12:38.835Z,78.10
2019-05-18T02:15:08.493Z,77.90
2019-05-18T02:17:37.833Z,77.90
2019-05-18T02:20:07.681Z,77.90
2019-05-18T02:22:36.932Z,77.60
2019-05-18T02:25:06.256Z,77.60
2019-05-18T02:27:35.511Z,77.40
2019-05-18T02:30:05.606Z,77.30
2019-05-18T02:32:34.986Z,77.50
2019-05-18T02:35:04.384Z,77.60
2019-05-18T02:37:33.705Z,77.80
2019-05-18T02:40:03.087Z,77.90
2019-05-18T02:42:32.370Z,77.90
2019-05-18T02:45:01.723Z,77.80
2019-05-18T02:47:30.935Z,77.80
2019-05-18T02:50:00.206Z,77.70
2019-05-18T02:52:29.436Z,77.60
2019-05-18T02:54:58.730Z,77.60
2019-05-18T02:57:27.969Z,77.50
2019-05-18T02:59:57.190Z,77.40
2019-05-18T03:02:26.421Z,78.10
2019-05-18T03:04:55.737Z,77.30
2019-05-18T03:07:25.094Z,77.20
2019-05-18T03:09:54.405Z,77.20
2019-05-18T03:12:23.755Z,77.10
2019-05-18T03:14:53.131Z,77.20
2019-05-18T03:17:22.452Z,77.30
2019-05-18T03:19:51.767Z,77.20
2019-05-18T03:22:21.023Z,77.40
2019-05-18T03:24:50.360Z,77.70
2019-05-18T03:27:19.849Z,77.80
2019-05-18T03:29:49.232Z,77.90
2019-05-18T03:32:18.517Z,77.70
2019-05-18T03:34:52.113Z,77.70
2019-05-18T03:37:21.411Z,77.80
2019-05-18T03:39:50.942Z,77.70
2019-05-18T03:42:20.215Z,77.80
2019-05-18T03:44:49.553Z,77.60
2019-05-18T03:47:18.814Z,77.50
2019-05-18T03:49:48.045Z,77.50
2019-05-18T03:52:17.343Z,77.50
2019-05-18T03:54:46.679Z,77.40
2019-05-18T03:57:15.984Z,77.40
2019-05-18T03:59:45.281Z,77.60
2019-05-18T04:02:14.539Z,77.60
2019-05-18T04:04:43.817Z,77.60
2019-05-18T04:07:13.426Z,77.70
2019-05-18T04:09:42.738Z,77.80
2019-05-18T04:12:12.159Z,77.80
2019-05-18T04:14:41.493Z,77.70
2019-05-18T04:17:10.786Z,77.70
2019-05-18T04:19:46.428Z,77.70
2019-05-18T04:22:11.003Z,77.80
2019-05-18T04:24:40.309Z,77.90
2019-05-18T04:27:09.637Z,77.90
2019-05-18T04:29:38.906Z,77.90
2019-05-18T04:32:08.121Z,78.00
2019-05-18T04:34:37.427Z,78.20
2019-05-18T04:37:06.804Z,78.20
2019-05-18T04:39:36.086Z,78.20
2019-05-18T04:42:05.417Z,78.30
2019-05-18T04:44:34.703Z,78.40
2019-05-18T04:47:04.001Z,78.40
2019-05-18T04:49:33.278Z,78.50
2019-05-18T04:52:02.613Z,78.70
2019-05-18T04:54:32.003Z,78.80
2019-05-18T04:57:01.227Z,78.90
2019-05-18T04:59:30.710Z,78.90
2019-05-18T05:01:59.985Z,78.80
2019-05-18T05:04:29.260Z,78.80
2019-05-18T05:06:58.592Z,78.70
2019-05-18T05:09:27.826Z,78.60
2019-05-18T05:11:57.209Z,78.50
2019-05-18T05:14:26.534Z,78.30
2019-05-18T05:16:55.752Z,78.20
2019-05-18T05:19:25.037Z,78.20
2019-05-18T05:21:54.259Z,78.00
2019-05-18T05:24:23.594Z,78.00
2019-05-18T05:26:52.913Z,77.90
2019-05-18T05:29:22.324Z,77.90
2019-05-18T05:31:51.635Z,77.80
2019-05-18T05:34:21.011Z,77.70
2019-05-18T05:36:50.305Z,77.50
2019-05-18T05:39:19.637Z,77.40
2019-05-18T05:41:48.983Z,78.30
2019-05-18T05:44:18.281Z,77.60
2019-05-18T05:46:47.940Z,77.60
2019-05-18T05:49:17.232Z,77.80
2019-05-18T05:51:46.535Z,77.80
2019-05-18T05:54:15.793Z,77.60
2019-05-18T05:56:45.039Z,77.60
2019-05-18T05:59:14.350Z,77.50
2019-05-18T06:01:43.595Z,77.70
2019-05-18T06:04:12.903Z,77.60
2019-05-18T06:06:42.184Z,77.50
2019-05-18T06:09:11.475Z,77.30
2019-05-18T06:11:40.913Z,77.40
2019-05-18T06:14:10.175Z,78.30
2019-05-18T06:16:39.524Z,77.20
2019-05-18T06:19:08.756Z,77.10
2019-05-18T06:21:38.007Z,77.00
2019-05-18T06:24:07.249Z,76.90
2019-05-18T06:26:36.530Z,76.90
2019-05-18T06:29:05.881Z,77.00
2019-05-18T06:31:35.389Z,76.90
2019-05-18T06:34:04.639Z,76.80
2019-05-18T06:36:33.918Z,76.60
2019-05-18T06:39:04.406Z,76.60
2019-05-18T06:41:33.663Z,76.70
2019-05-18T06:44:03.944Z,76.40
2019-05-18T06:46:36.011Z,76.50
2019-05-18T06:49:05.378Z,76.30
2019-05-18T06:51:34.681Z,76.40
2019-05-18T06:54:04.041Z,76.20
2019-05-18T06:56:34.144Z,75.90
2019-05-18T06:59:03.644Z,75.50
2019-05-18T07:01:32.944Z,75.30
2019-05-18T07:04:02.181Z,75.30
2019-05-18T07:06:31.481Z,75.00
2019-05-18T07:09:00.861Z,74.50
2019-05-18T07:11:30.173Z,74.30
2019-05-18T07:13:59.451Z,74.40
2019-05-18T07:16:28.742Z,74.40
2019-05-18T07:18:58.030Z,75.40
2019-05-18T07:21:27.331Z,74.10
2019-05-18T07:23:56.646Z,74.20
2019-05-18T07:26:25.982Z,74.50
2019-05-18T07:28:55.331Z,73.90
2019-05-18T07:31:24.654Z,72.70
2019-05-18T07:33:54.057Z,72.60
2019-05-18T07:36:23.328Z,72.60
2019-05-18T07:38:52.702Z,72.50
2019-05-18T07:41:21.953Z,72.30
2019-05-18T07:43:51.282Z,72.30
2019-05-18T07:46:20.556Z,73.00
2019-05-18T07:48:49.797Z,73.10
2019-05-18T07:51:19.130Z,72.70
2019-05-18T07:53:48.360Z,72.70
2019-05-18T07:56:17.650Z,72.10
2019-05-18T07:58:46.869Z,71.70
2019-05-18T08:01:16.103Z,71.80
2019-05-18T08:03:45.437Z,71.50
2019-05-18T08:06:14.738Z,71.40
2019-05-18T08:08:47.306Z,71.20
2019-05-18T08:11:16.561Z,71.60
2019-05-18T08:13:45.920Z,71.70
2019-05-18T08:16:15.250Z,71.50
2019-05-18T08:18:44.740Z,71.70
2019-05-18T08:21:17.152Z,71.40
2019-05-18T08:23:46.414Z,71.90
2019-05-18T08:26:15.791Z,71.40
2019-05-18T08:28:45.152Z,71.10
2019-05-18T08:31:14.469Z,70.30
2019-05-18T08:33:43.754Z,69.70
2019-05-18T08:36:13.111Z,69.30
2019-05-18T08:38:42.327Z,69.20
2019-05-18T08:41:11.751Z,69.00
2019-05-18T08:43:41.067Z,68.40
2019-05-18T08:46:12.103Z,68.10
2019-05-18T08:48:41.572Z,68.00
2019-05-18T08:51:29.858Z,67.80
2019-05-18T08:53:59.542Z,67.10
2019-05-18T08:56:28.787Z,66.30
2019-05-18T08:58:58.030Z,66.30
2019-05-18T09:01:27.420Z,66.20
2019-05-18T09:03:56.674Z,65.70
2019-05-18T09:06:26.020Z,65.70
2019-05-18T09:08:55.341Z,65.60
2019-05-18T09:11:24.568Z,65.00
2019-05-18T09:13:53.923Z,64.30
2019-05-18T09:16:23.344Z,63.90
2019-05-18T09:18:52.669Z,63.70
2019-05-18T09:21:22.156Z,63.60
2019-05-18T09:23:51.457Z,62.10
2019-05-18T09:26:20.736Z,61.40
2019-05-18T09:28:50.071Z,60.30
2019-05-18T09:31:19.471Z,60.30
2019-05-18T09:33:48.833Z,60.00
2019-05-18T09:36:18.051Z,60.00
2019-05-18T09:38:48.529Z,59.50
2019-05-18T09:41:17.870Z,58.60
2019-05-18T09:43:47.125Z,58.30
2019-05-18T09:46:16.351Z,58.40
2019-05-18T09:48:45.612Z,57.70
2019-05-18T09:51:14.899Z,57.30
2019-05-18T09:53:51.210Z,56.80
2019-05-18T09:56:15.117Z,56.70
2019-05-18T09:58:44.413Z,56.40
2019-05-18T10:01:13.655Z,56.10
2019-05-18T10:03:42.976Z,55.60
2019-05-18T10:06:12.193Z,55.30
2019-05-18T10:08:43.813Z,55.00
2019-05-18T10:11:12.997Z,55.00
2019-05-18T10:13:42.197Z,54.80
2019-05-18T10:16:11.525Z,54.50
2019-05-18T10:18:40.828Z,54.70
2019-05-18T10:21:10.095Z,54.20
2019-05-18T10:23:40.545Z,53.80
2019-05-18T10:26:10.072Z,53.60
2019-05-18T10:28:39.420Z,53.70
2019-05-18T10:31:08.772Z,53.60
2019-05-18T10:33:38.002Z,53.40
2019-05-18T10:36:11.812Z,53.60
2019-05-18T10:38:41.123Z,53.10
2019-05-18T10:41:10.397Z,52.60
2019-05-18T10:43:39.663Z,52.40
2019-05-18T10:46:08.935Z,52.50
2019-05-18T10:48:38.288Z,52.50
2019-05-18T10:51:07.609Z,52.60
2019-05-18T10:53:37.039Z,52.70
2019-05-18T10:56:06.234Z,52.40
2019-05-18T10:58:35.439Z,51.70
2019-05-18T11:01:04.692Z,49.80
2019-05-18T11:03:33.980Z,49.40
2019-05-18T11:06:03.303Z,49.00
2019-05-18T11:08:33.084Z,48.90
2019-05-18T11:11:02.301Z,49.00
2019-05-18T11:13:31.622Z,49.10
2019-05-18T11:16:00.839Z,48.60
2019-05-18T11:18:30.458Z,48.70
2019-05-18T11:20:59.906Z,48.60
2019-05-18T11:23:42.865Z,48.50
2019-05-18T11:26:00.088Z,47.60
2019-05-18T11:28:32.166Z,47.40
2019-05-18T11:31:01.857Z,47.40
2019-05-18T11:33:31.063Z,47.10
2019-05-18T11:36:00.302Z,46.60
2019-05-18T11:38:29.598Z,47.00
2019-05-18T11:40:58.867Z,46.30
2019-05-18T11:43:28.102Z,46.00
2019-05-18T11:45:57.391Z,45.70
2019-05-18T11:48:26.632Z,46.30
2019-05-18T11:50:55.874Z,46.20
2019-05-18T11:53:25.308Z,46.50
2019-05-18T11:55:54.634Z,46.50
2019-05-18T11:58:23.959Z,46.70
2019-05-18T12:00:53.304Z,46.70
2019-05-18T12:03:22.566Z,46.80
2019-05-18T12:05:51.854Z,46.70
2019-05-18T12:08:21.121Z,46.10
2019-05-18T12:10:52.156Z,46.30
2019-05-18T12:13:22.514Z,46.30
2019-05-18T12:15:51.849Z,45.80
2019-05-18T12:18:21.069Z,45.80
2019-05-18T12:20:50.267Z,45.80
2019-05-18T12:23:19.545Z,46.20
2019-05-18T12:25:50.714Z,46.50
2019-05-18T12:28:19.756Z,46.10
2019-05-18T12:30:49.016Z,46.00
2019-05-18T12:33:18.319Z,45.40
2019-05-18T12:35:47.618Z,45.20
2019-05-18T12:38:17.543Z,44.90
2019-05-18T12:40:46.859Z,44.70
2019-05-18T12:43:16.102Z,44.50
2019-05-18T12:45:45.544Z,44.20
2019-05-18T12:48:15.284Z,43.90
2019-05-18T12:50:44.541Z,42.80
2019-05-18T12:53:13.857Z,42.70
2019-05-18T12:55:43.211Z,43.00
2019-05-18T12:58:12.540Z,42.70
2019-05-18T13:00:41.858Z,41.90
2019-05-18T13:03:11.164Z,41.10
2019-05-18T13:05:40.446Z,41.00
2019-05-18T13:08:09.725Z,40.00
2019-05-18T13:10:41.820Z,39.50
2019-05-18T13:13:11.145Z,38.90
2019-05-18T13:15:40.567Z,38.70
2019-05-18T13:18:09.857Z,39.60
2019-05-18T13:20:39.123Z,40.10
2019-05-18T13:23:08.464Z,40.00
2019-05-18T13:25:37.741Z,40.20
2019-05-18T13:28:06.987Z,40.20
2019-05-18T13:30:36.306Z,40.80
2019-05-18T13:33:05.531Z,40.60
2019-05-18T13:35:34.888Z,41.00
2019-05-18T13:38:04.182Z,39.80
2019-05-18T13:40:33.493Z,39.20
2019-05-18T13:43:03.011Z,38.60
2019-05-18T13:45:32.221Z,38.20
2019-05-18T13:48:01.544Z,38.40
2019-05-18T13:50:30.872Z,38.60
2019-05-18T13:53:00.100Z,38.60
2019-05-18T13:55:29.351Z,38.60
2019-05-18T13:57:58.602Z,38.60
2019-05-18T14:00:27.867Z,38.90
2019-05-18T14:02:57.178Z,38.80
2019-05-18T14:05:26.383Z,38.50
2019-05-18T14:07:55.691Z,38.10
2019-05-18T14:10:25.012Z,37.80
2019-05-18T14:12:54.493Z,37.80
2019-05-18T14:15:23.819Z,38.00
2019-05-18T14:17:53.050Z,37.60
2019-05-18T14:20:22.528Z,37.60
2019-05-18T14:22:51.728Z,37.50
2019-05-18T14:25:21.033Z,37.60
2019-05-18T14:27:50.353Z,37.50
2019-05-18T14:30:22.673Z,37.30
2019-05-18T14:32:52.007Z,37.50
2019-05-18T14:35:21.383Z,37.30
2019-05-18T14:37:50.670Z,37.10
2019-05-18T14:40:20.104Z,36.80
2019-05-18T14:42:49.321Z,37.00
2019-05-18T14:45:19.246Z,36.40
2019-05-18T14:47:48.653Z,36.20
2019-05-18T14:50:18.562Z,35.90
2019-05-18T14:52:47.905Z,35.80
2019-05-18T14:55:17.436Z,35.20
2019-05-18T14:57:46.820Z,34.50
2019-05-18T15:00:16.430Z,34.20
2019-05-18T15:02:45.737Z,34.00
2019-05-18T15:05:17.933Z,33.90
2019-05-18T15:07:47.124Z,33.70
2019-05-18T15:10:16.359Z,32.80
2019-05-18T15:12:45.593Z,32.20
2019-05-18T15:15:15.393Z,31.80
2019-05-18T15:17:44.715Z,31.20
2019-05-18T15:20:17.120Z,30.50
2019-05-18T15:22:46.423Z,30.70
2019-05-18T15:25:15.922Z,31.00
2019-05-18T15:27:45.149Z,31.20
2019-05-18T15:30:14.702Z,30.60
2019-05-18T15:32:44.230Z,31.70
2019-05-18T15:35:13.628Z,31.50
2019-05-18T15:37:43.716Z,31.20
2019-05-18T15:40:13.697Z,31.20
2019-05-18T15:42:43.009Z,31.30
2019-05-18T15:45:12.653Z,31.40
2019-05-18T15:47:41.899Z,31.80
2019-05-18T15:50:11.710Z,32.10
2019-05-18T15:52:41.010Z,32.10
2019-05-18T15:55:10.502Z,32.20
2019-05-18T15:57:39.803Z,31.70
2019-05-18T16:00:09.963Z,31.30
2019-05-18T16:02:39.651Z,30.60
2019-05-18T16:05:09.427Z,30.10
2019-05-18T16:07:38.745Z,29.80
2019-05-18T16:10:08.447Z,29.60
2019-05-18T16:12:37.747Z,29.90
2019-05-18T16:15:07.686Z,31.00
2019-05-18T16:17:39.751Z,32.00
2019-05-18T16:20:09.117Z,33.00
2019-05-18T16:22:38.528Z,33.90
2019-05-18T16:25:07.967Z,35.20
2019-05-18T16:27:37.435Z,36.50
2019-05-18T16:30:08.565Z,38.50
2019-05-18T16:32:37.866Z,38.70
2019-05-18T16:35:07.434Z,39.20
2019-05-18T16:37:37.114Z,39.80
2019-05-18T16:40:07.868Z,40.30
2019-05-18T16:42:37.391Z,40.90
2019-05-18T16:45:06.988Z,41.50
2019-05-18T16:47:37.636Z,42.20
2019-05-18T16:50:07.399Z,42.80
2019-05-18T16:52:36.816Z,43.40
2019-05-18T16:55:06.394Z,43.80
2019-05-18T16:57:35.666Z,44.30
2019-05-18T17:00:05.507Z,44.70
2019-05-18T17:02:34.801Z,45.20
2019-05-18T17:05:04.233Z,45.60
2019-05-18T17:07:33.491Z,46.00
2019-05-18T17:10:02.809Z,46.30
2019-05-18T17:12:32.108Z,46.70
2019-05-18T17:15:01.466Z,47.10
2019-05-18T17:17:30.828Z,47.30
2019-05-18T17:20:00.163Z,47.50
2019-05-18T17:22:29.520Z,47.50
2019-05-18T17:24:58.861Z,47.40
2019-05-18T17:27:28.183Z,47.20
2019-05-18T17:29:58.294Z,46.90
2019-05-18T17:32:27.872Z,46.50
2019-05-18T17:34:57.531Z,46.00
2019-05-18T17:37:26.815Z,45.90
2019-05-18T17:39:56.066Z,45.90
2019-05-18T17:42:25.367Z,45.70
2019-05-18T17:44:54.773Z,45.70
2019-05-18T17:47:24.116Z,45.20
2019-05-18T17:49:53.489Z,45.10
2019-05-18T17:52:22.766Z,45.00
2019-05-18T17:54:52.095Z,45.00
2019-05-18T17:57:21.389Z,45.10
2019-05-18T17:59:50.592Z,45.30
2019-05-18T18:02:19.965Z,45.60
2019-05-18T18:04:49.303Z,45.90
2019-05-18T18:07:18.624Z,46.30
2019-05-18T18:09:47.834Z,46.40
2019-05-18T18:12:17.103Z,46.50
2019-05-18T18:14:46.323Z,46.60
2019-05-18T18:17:17.670Z,46.90
2019-05-18T18:19:46.511Z,47.00
2019-05-18T18:22:15.766Z,47.40
2019-05-18T18:24:45.126Z,47.70
2019-05-18T18:27:24.836Z,47.60
2019-05-18T18:29:45.445Z,47.50
2019-05-18T18:32:14.861Z,47.90
2019-05-18T18:34:44.189Z,48.00
2019-05-18T18:37:13.574Z,48.30
2019-05-18T18:39:42.920Z,48.50
2019-05-18T18:42:12.197Z,49.00
2019-05-18T18:44:41.450Z,49.20
2019-05-18T18:47:10.805Z,49.90
2019-05-18T18:49:40.068Z,50.60
2019-05-18T18:52:09.434Z,50.90
2019-05-18T18:54:38.853Z,51.50
2019-05-18T18:57:08.142Z,51.90
2019-05-18T18:59:37.586Z,52.50
2019-05-18T19:02:06.840Z,52.80
2019-05-18T19:04:36.155Z,53.10
2019-05-18T19:07:09.004Z,53.30
2019-05-18T19:09:36.906Z,53.60
2019-05-18T19:12:06.206Z,53.80
2019-05-18T19:14:35.793Z,54.10
2019-05-18T19:17:05.548Z,54.30
2019-05-18T19:19:35.004Z,54.70
2019-05-18T19:22:04.391Z,55.00
2019-05-18T19:24:34.207Z,55.20
2019-05-18T19:27:03.565Z,55.50
2019-05-18T19:29:33.407Z,55.70
2019-05-18T19:32:02.705Z,55.90
2019-05-18T19:34:51.157Z,56.30
2019-05-18T19:37:20.444Z,56.70
2019-05-18T19:39:50.266Z,57.10
2019-05-18T19:42:19.512Z,57.30
2019-05-18T19:44:48.875Z,57.80
2019-05-18T19:47:18.211Z,58.10
2019-05-18T19:49:47.979Z,58.50
2019-05-18T19:52:17.360Z,58.70
2019-05-18T19:54:46.762Z,59.20
2019-05-18T19:57:16.179Z,59.40
2019-05-18T19:59:45.841Z,59.40
2019-05-18T20:02:18.381Z,59.80
2019-05-18T20:05:05.628Z,60.30
2019-05-18T20:07:17.300Z,60.60
2019-05-18T20:09:46.557Z,61.00
2019-05-18T20:12:15.916Z,61.70
2019-05-18T20:14:45.333Z,61.90
2019-05-18T20:17:14.768Z,61.70
2019-05-18T20:19:44.208Z,61.80
2019-05-18T20:22:14.054Z,61.90
2019-05-18T20:24:43.275Z,62.00
2019-05-18T20:27:12.716Z,62.90
2019-05-18T20:29:42.002Z,62.30
2019-05-18T20:32:11.301Z,62.40
2019-05-18T20:34:40.749Z,62.50
2019-05-18T20:37:10.194Z,62.80
2019-05-18T20:39:39.536Z,63.10
2019-05-18T20:42:08.908Z,63.40
2019-05-18T20:44:38.239Z,63.20
2019-05-18T20:47:07.511Z,63.30
2019-05-18T20:49:36.798Z,63.30
2019-05-18T20:52:06.130Z,64.00
2019-05-18T20:54:35.447Z,64.30
2019-05-18T20:57:07.478Z,64.70
2019-05-18T20:59:37.946Z,64.90
2019-05-18T21:02:07.197Z,64.90
2019-05-18T21:04:38.874Z,65.00
2019-05-18T21:07:11.542Z,65.20
2019-05-18T21:09:45.876Z,65.50
2019-05-18T21:12:14.145Z,65.70
2019-05-18T21:14:43.464Z,65.70
2019-05-18T21:17:12.799Z,66.30
2019-05-18T21:19:42.094Z,66.70
2019-05-18T21:22:11.334Z,67.00
2019-05-18T21:24:40.697Z,67.00
2019-05-18T21:27:10.118Z,66.70
2019-05-18T21:29:39.602Z,66.80
2019-05-18T21:32:08.903Z,67.00
2019-05-18T21:34:38.156Z,67.10
2019-05-18T21:37:07.499Z,67.10
2019-05-18T21:39:36.867Z,67.60
2019-05-18T21:42:06.910Z,67.80
2019-05-18T21:44:36.216Z,67.80
2019-05-18T21:47:05.497Z,68.60
2019-05-18T21:49:34.758Z,67.50
2019-05-18T21:52:03.999Z,67.60
2019-05-18T21:54:33.921Z,67.90
2019-05-18T21:57:03.134Z,68.00
2019-05-18T21:59:32.444Z,68.30
2019-05-18T22:02:01.719Z,68.40
2019-05-18T22:04:31.008Z,68.50
2019-05-18T22:07:00.572Z,68.80
2019-05-18T22:09:32.601Z,69.00
2019-05-18T22:12:02.172Z,69.10
2019-05-18T22:14:31.678Z,69.50
2019-05-18T22:17:01.109Z,69.60
2019-05-18T22:19:30.589Z,69.90
2019-05-18T22:21:59.985Z,69.90
2019-05-18T22:24:29.202Z,69.90
2019-05-18T22:26:58.636Z,70.00
2019-05-18T22:29:27.898Z,70.00
2019-05-18T22:31:57.297Z,69.90
2019-05-18T22:34:26.810Z,70.10
2019-05-18T22:36:56.278Z,70.20
2019-05-18T22:39:26.698Z,70.10
2019-05-18T22:41:56.144Z,70.20
2019-05-18T22:44:25.383Z,70.00
2019-05-18T22:46:54.676Z,69.90
2019-05-18T22:49:23.921Z,69.70
2019-05-18T22:51:53.227Z,69.50
2019-05-18T22:54:22.556Z,69.30
2019-05-18T22:56:51.859Z,69.20
2019-05-18T22:59:21.109Z,69.20
2019-05-18T23:01:50.416Z,69.20
2019-05-18T23:04:19.706Z,69.20
2019-05-18T23:06:49.084Z,69.20
2019-05-18T23:09:18.388Z,69.20
2019-05-18T23:11:47.612Z,69.40
2019-05-18T23:14:16.893Z,69.60
2019-05-18T23:16:46.256Z,69.60
2019-05-18T23:19:15.463Z,69.80
2019-05-18T23:21:44.742Z,70.00
2019-05-18T23:24:14.077Z,70.10
2019-05-18T23:26:43.410Z,70.10
2019-05-18T23:29:14.821Z,70.20
2019-05-18T23:31:44.091Z,70.70
2019-05-18T23:34:13.440Z,70.70
2019-05-18T23:36:42.862Z,70.80
2019-05-18T23:39:12.131Z,70.70
2019-05-18T23:41:44.180Z,70.70
2019-05-18T23:44:13.444Z,70.70
2019-05-18T23:46:42.722Z,70.70
2019-05-18T23:49:12.015Z,70.90
2019-05-18T23:51:41.237Z,71.30
2019-05-18T23:54:10.539Z,71.50
2019-05-18T23:56:39.763Z,71.60
2019-05-18T23:59:09.021Z,71.70
